createdAt,value
2023-01-29T00:03:00.080Z,2.39
2023-01-29T00:07:16.369Z,2.21
2023-01-29T00:11:32.544Z,2.02
2023-01-29T00:15:59.057Z,2.15
2023-01-29T00:20:16.013Z,2.33
2023-01-29T00:24:32.522Z,2.22
2023-01-29T00:28:48.916Z,2.52
2023-01-29T00:33:05.674Z,2.28
2023-01-29T00:37:21.864Z,2.18
2023-01-29T00:41:56.752Z,2.23
2023-01-29T00:46:13.098Z,2.09
2023-01-29T00:50:29.414Z,2.48
2023-01-29T00:54:45.614Z,2.54
2023-01-29T00:59:02.051Z,2.51
2023-01-29T01:03:18.333Z,2.62
2023-01-29T01:07:35.015Z,2.43
2023-01-29T01:11:51.911Z,2.59
2023-01-29T01:16:27.264Z,2.21
2023-01-29T01:20:43.865Z,2.07
2023-01-29T01:25:00.032Z,2.17
2023-01-29T01:29:16.188Z,2.40
2023-01-29T01:33:32.369Z,2.22
2023-01-29T01:37:48.599Z,2.08
2023-01-29T01:42:06.435Z,2.02
2023-01-29T01:46:23.603Z,2.24
2023-01-29T01:50:52.982Z,2.33
2023-01-29T01:55:10.222Z,2.16
2023-01-29T01:59:26.547Z,2.24
2023-01-29T02:04:05.708Z,2.13
2023-01-29T02:08:54.442Z,2.03
2023-01-29T02:13:11.592Z,2.06
2023-01-29T02:17:27.900Z,2.25
2023-01-29T02:22:13.890Z,2.12
2023-01-29T02:26:45.074Z,2.29
2023-01-29T02:31:04.307Z,2.50
2023-01-29T02:35:32.193Z,2.62
2023-01-29T02:39:57.172Z,2.55
2023-01-29T02:44:39.091Z,2.72
2023-01-29T02:49:32.527Z,2.59
2023-01-29T02:54:24.566Z,2.35
2023-01-29T02:58:46.275Z,2.31
2023-01-29T03:03:10.317Z,2.53
2023-01-29T03:07:52.256Z,2.71
2023-01-29T03:12:29.369Z,2.78
2023-01-29T03:16:52.164Z,2.20
2023-01-29T03:21:31.632Z,2.51
2023-01-29T03:26:06.721Z,2.70
2023-01-29T03:30:44.591Z,2.47
2023-01-29T03:35:05.432Z,2.46
2023-01-29T03:39:22.354Z,2.29
2023-01-29T03:44:16.087Z,2.38
2023-01-29T03:48:38.031Z,2.54
2023-01-29T03:53:13.158Z,2.56
2023-01-29T03:57:59.689Z,2.79
2023-01-29T04:02:28.279Z,2.69
2023-01-29T04:06:46.739Z,2.72
2023-01-29T04:11:08.557Z,2.85
2023-01-29T04:15:26.519Z,2.46
2023-01-29T04:19:43.131Z,2.50
2023-01-29T04:23:59.523Z,2.58
2023-01-29T04:28:26.898Z,2.56
2023-01-29T04:33:19.469Z,2.65
2023-01-29T04:37:55.319Z,2.42
2023-01-29T04:42:35.488Z,2.56
2023-01-29T04:47:00.485Z,2.04
2023-01-29T04:51:57.999Z,2.00
2023-01-29T04:56:25.938Z,2.21
2023-01-29T05:00:49.149Z,2.06
2023-01-29T05:05:07.059Z,2.36
2023-01-29T05:09:23.712Z,2.42
2023-01-29T05:13:42.053Z,1.95
2023-01-29T05:18:03.264Z,2.31
2023-01-29T05:22:22.915Z,2.12
2023-01-29T05:26:57.734Z,2.02
2023-01-29T05:31:14.041Z,1.66
2023-01-29T05:35:30.731Z,1.33
2023-01-29T05:39:46.943Z,1.92
2023-01-29T05:44:03.467Z,1.93
2023-01-29T05:48:19.676Z,2.22
2023-01-29T05:52:35.928Z,2.10
2023-01-29T05:56:52.157Z,2.06
2023-01-29T06:01:23.100Z,2.32
2023-01-29T06:05:40.161Z,2.44
2023-01-29T06:09:56.372Z,1.70
2023-01-29T06:14:12.546Z,1.83
2023-01-29T06:18:28.712Z,2.18
2023-01-29T06:22:45.043Z,1.66
2023-01-29T06:27:01.146Z,1.23
2023-01-29T06:31:36.704Z,1.75
2023-01-29T06:36:00.869Z,1.72
2023-01-29T06:40:17.355Z,1.49
2023-01-29T06:44:33.673Z,1.44
2023-01-29T06:48:49.858Z,0.94
2023-01-29T06:53:06.014Z,1.51
2023-01-29T06:57:22.728Z,1.76
2023-01-29T07:01:44.619Z,2.10
2023-01-29T07:06:00.918Z,1.50
2023-01-29T07:10:17.499Z,1.08
2023-01-29T07:14:33.965Z,1.07
2023-01-29T07:18:50.160Z,1.41
2023-01-29T07:23:06.592Z,1.02
2023-01-29T07:27:22.847Z,1.55
2023-01-29T07:31:39.056Z,1.38
2023-01-29T07:35:55.470Z,0.98
2023-01-29T07:40:12.196Z,1.39
2023-01-29T07:44:28.371Z,1.20
2023-01-29T07:48:44.575Z,1.58
2023-01-29T07:53:01.127Z,1.82
2023-01-29T07:57:17.356Z,1.26
2023-01-29T08:01:33.548Z,1.77
2023-01-29T08:05:50.163Z,2.11
2023-01-29T08:10:06.636Z,1.77
2023-01-29T08:14:23.187Z,1.52
2023-01-29T08:18:44.246Z,1.59
2023-01-29T08:23:10.421Z,1.55
2023-01-29T08:27:26.598Z,1.76
2023-01-29T08:31:42.897Z,2.25
2023-01-29T08:35:59.019Z,2.50
2023-01-29T08:40:15.630Z,2.53
2023-01-29T08:44:32.090Z,2.38
2023-01-29T08:48:48.218Z,2.56
2023-01-29T08:53:08.079Z,2.80
2023-01-29T08:57:24.302Z,2.58
2023-01-29T09:01:40.547Z,2.59
2023-01-29T09:05:56.728Z,2.76
2023-01-29T09:10:13.623Z,2.50
2023-01-29T09:14:29.772Z,2.53
2023-01-29T09:18:46.006Z,2.79
2023-01-29T09:23:10.412Z,2.55
2023-01-29T09:27:26.627Z,2.40
2023-01-29T09:31:42.892Z,2.36
2023-01-29T09:35:59.543Z,2.33
2023-01-29T09:40:27.084Z,2.28
2023-01-29T09:45:01.465Z,2.29
2023-01-29T09:49:23.985Z,1.87
2023-01-29T09:54:12.101Z,1.90
2023-01-29T09:58:42.654Z,2.17
2023-01-29T10:03:30.148Z,2.38
2023-01-29T10:08:07.000Z,2.10
2023-01-29T10:12:43.733Z,2.35
2023-01-29T10:17:22.004Z,2.66
2023-01-29T10:21:59.519Z,2.36
2023-01-29T10:26:15.709Z,2.48
2023-01-29T10:30:45.164Z,2.33
2023-01-29T10:35:28.428Z,2.57
2023-01-29T10:39:44.612Z,2.49
2023-01-29T10:44:14.288Z,2.11
2023-01-29T10:48:35.389Z,2.30
2023-01-29T10:53:10.321Z,2.77
2023-01-29T10:57:56.929Z,2.25
2023-01-29T11:02:24.068Z,2.09
2023-01-29T11:06:40.280Z,2.43
2023-01-29T11:10:59.288Z,1.78
2023-01-29T11:15:18.448Z,2.46
2023-01-29T11:19:43.195Z,1.77
2023-01-29T11:24:15.544Z,1.90
2023-01-29T11:28:42.292Z,2.21
2023-01-29T11:33:21.990Z,1.96
2023-01-29T11:37:40.132Z,2.65
2023-01-29T11:42:01.848Z,2.66
2023-01-29T11:46:18.010Z,2.20
2023-01-29T11:50:34.608Z,2.31
2023-01-29T11:55:16.504Z,2.71
2023-01-29T11:59:50.152Z,2.92
2023-01-29T12:04:18.832Z,3.12
2023-01-29T12:08:39.673Z,2.95
2023-01-29T12:13:05.944Z,1.75
2023-01-29T12:17:25.786Z,2.18
2023-01-29T12:22:03.739Z,2.48
2023-01-29T12:26:46.408Z,2.83
2023-01-29T12:31:39.530Z,1.95
2023-01-29T12:36:12.417Z,1.57
2023-01-29T12:40:33.534Z,0.86
2023-01-29T12:44:57.661Z,1.23
2023-01-29T12:49:27.529Z,1.72
2023-01-29T12:54:07.580Z,1.65
2023-01-29T12:58:30.247Z,1.78
2023-01-29T13:03:00.004Z,1.91
2023-01-29T13:07:19.738Z,1.50
2023-01-29T13:11:58.745Z,1.58
2023-01-29T13:16:16.033Z,2.04
2023-01-29T13:20:34.189Z,2.36
2023-01-29T13:25:03.720Z,2.35
2023-01-29T13:29:27.924Z,2.44
2023-01-29T13:33:52.245Z,2.40
2023-01-29T13:38:26.095Z,2.37
2023-01-29T13:42:48.049Z,2.81
2023-01-29T13:47:07.907Z,1.49
2023-01-29T13:51:34.502Z,1.97
2023-01-29T13:55:50.831Z,0.71
2023-01-29T14:00:33.120Z,0.77
2023-01-29T14:04:49.385Z,-0.34
2023-01-29T14:09:25.438Z,0.09
2023-01-29T14:13:42.696Z,0.84
2023-01-29T14:18:13.462Z,0.72
2023-01-29T14:22:32.088Z,1.21
2023-01-29T14:26:54.455Z,2.83
2023-01-29T14:31:11.435Z,5.92
2023-01-29T14:35:30.778Z,2.60
2023-01-29T14:39:52.653Z,2.35
2023-01-29T14:44:48.518Z,1.87
2023-01-29T14:49:07.925Z,2.01
2023-01-29T14:53:29.924Z,2.05
2023-01-29T14:57:46.273Z,2.31
2023-01-29T15:02:24.298Z,2.01
2023-01-29T15:06:47.789Z,1.47
2023-01-29T15:11:27.040Z,1.46
2023-01-29T15:15:56.593Z,1.41
2023-01-29T15:20:48.780Z,1.08
2023-01-29T15:25:07.922Z,0.71
2023-01-29T15:29:28.185Z,1.20
2023-01-29T15:33:47.367Z,1.12
2023-01-29T15:38:05.858Z,1.24
2023-01-29T15:42:25.872Z,1.38
2023-01-29T15:46:44.195Z,1.65
2023-01-29T15:51:05.551Z,1.57
2023-01-29T15:55:23.932Z,0.82
2023-01-29T15:59:44.370Z,0.41
2023-01-29T16:04:02.681Z,0.41
2023-01-29T16:08:20.749Z,0.45
2023-01-29T16:12:37.847Z,1.16
2023-01-29T16:16:54.065Z,0.50
2023-01-29T16:21:29.458Z,0.53
2023-01-29T16:25:45.923Z,0.23
2023-01-29T16:30:03.162Z,0.01
2023-01-29T16:34:19.644Z,0.50
2023-01-29T16:38:36.411Z,0.42
2023-01-29T16:43:14.095Z,-0.07
2023-01-29T16:47:43.397Z,-0.04
2023-01-29T16:52:26.469Z,-0.19
2023-01-29T16:56:48.079Z,-0.31
2023-01-29T17:01:11.638Z,-0.10
2023-01-29T17:05:30.489Z,0.16
2023-01-29T17:09:48.999Z,-0.16
2023-01-29T17:14:07.272Z,-0.07
2023-01-29T17:18:26.187Z,0.01
2023-01-29T17:22:42.834Z,-0.49
2023-01-29T17:27:00.717Z,-1.02
2023-01-29T17:31:17.054Z,-0.28
2023-01-29T17:35:33.344Z,-1.15
2023-01-29T17:39:50.793Z,-1.04
2023-01-29T17:44:07.024Z,-1.32
2023-01-29T17:48:27.977Z,-0.53
2023-01-29T17:52:44.098Z,-0.93
2023-01-29T17:57:00.256Z,-0.55
2023-01-29T18:01:16.901Z,-0.65
2023-01-29T18:05:33.566Z,-0.16
2023-01-29T18:09:49.718Z,-0.65
2023-01-29T18:14:13.521Z,-0.50
2023-01-29T18:18:30.722Z,-1.08
2023-01-29T18:22:47.382Z,-1.23
2023-01-29T18:27:03.513Z,-0.81
2023-01-29T18:31:19.691Z,-0.69
2023-01-29T18:35:35.926Z,-0.55
2023-01-29T18:39:53.263Z,-1.03
2023-01-29T18:44:10.997Z,-0.71
2023-01-29T18:48:27.238Z,-0.36
2023-01-29T18:52:45.145Z,-1.15
2023-01-29T18:57:13.371Z,-0.86
2023-01-29T19:01:32.594Z,-0.97
2023-01-29T19:05:48.793Z,-0.72
2023-01-29T19:10:07.042Z,-0.40
2023-01-29T19:14:23.218Z,-0.46
2023-01-29T19:18:39.644Z,-0.70
2023-01-29T19:22:55.785Z,-0.42
2023-01-29T19:27:12.606Z,-0.81
2023-01-29T19:31:29.017Z,-1.33
2023-01-29T19:35:45.743Z,-0.93
2023-01-29T19:40:01.933Z,-0.78
2023-01-29T19:44:18.277Z,-0.63
2023-01-29T19:48:34.518Z,-0.63
2023-01-29T19:52:52.578Z,-0.70
2023-01-29T19:57:09.183Z,-0.48
2023-01-29T20:01:26.096Z,-0.59
2023-01-29T20:05:42.176Z,-0.28
2023-01-29T20:09:58.386Z,-0.87
2023-01-29T20:14:14.628Z,-0.86
2023-01-29T20:18:31.334Z,-0.76
2023-01-29T20:22:47.488Z,-1.20
2023-01-29T20:27:03.866Z,-1.39
2023-01-29T20:31:20.148Z,-1.28
2023-01-29T20:35:37.432Z,-1.26
2023-01-29T20:39:53.568Z,-1.09
2023-01-29T20:44:09.874Z,-1.56
2023-01-29T20:48:26.345Z,-1.21
2023-01-29T20:52:46.828Z,-1.12
2023-01-29T20:57:03.163Z,-1.29
2023-01-29T21:01:21.010Z,-1.19
2023-01-29T21:05:37.120Z,-1.07
2023-01-29T21:09:53.271Z,-0.95
2023-01-29T21:14:10.091Z,-0.94
2023-01-29T21:18:26.540Z,-0.68
2023-01-29T21:22:44.137Z,-0.73
2023-01-29T21:27:01.659Z,-0.72
2023-01-29T21:31:17.885Z,-0.96
2023-01-29T21:35:37.146Z,-1.07
2023-01-29T21:39:54.087Z,-1.09
2023-01-29T21:44:10.846Z,-0.88
2023-01-29T21:48:30.833Z,-0.94
2023-01-29T21:52:47.596Z,-0.77
2023-01-29T21:57:08.505Z,-0.74
2023-01-29T22:01:38.043Z,-0.94
2023-01-29T22:05:54.767Z,-0.68
2023-01-29T22:10:12.321Z,-0.75
2023-01-29T22:14:28.824Z,-0.82
2023-01-29T22:18:44.930Z,-1.11
2023-01-29T22:23:01.060Z,-0.89
2023-01-29T22:27:17.501Z,-0.83
2023-01-29T22:31:33.845Z,-0.71
2023-01-29T22:35:54.910Z,-0.62
2023-01-29T22:40:11.667Z,-0.50
2023-01-29T22:44:27.821Z,-0.77
2023-01-29T22:48:44.040Z,-0.72
2023-01-29T22:53:00.381Z,-0.96
2023-01-29T22:57:16.685Z,-1.14
2023-01-29T23:01:33.177Z,-0.87
2023-01-29T23:05:49.289Z,-0.78
2023-01-29T23:10:07.136Z,-0.88
2023-01-29T23:14:23.458Z,-0.58
2023-01-29T23:18:39.852Z,-0.90
2023-01-29T23:22:56.188Z,-0.89
2023-01-29T23:27:15.052Z,-0.60
2023-01-29T23:31:32.206Z,-0.64
2023-01-29T23:35:48.516Z,-0.89
2023-01-29T23:40:05.006Z,-0.63
2023-01-29T23:44:21.254Z,-0.94
2023-01-29T23:48:37.426Z,-0.70
2023-01-29T23:52:53.661Z,-0.71
2023-01-29T23:57:09.840Z,-0.55
